createdAt,value
2023-03-30T00:01:15.351Z,14.90
2023-03-30T00:03:50.292Z,14.84
2023-03-30T00:06:23.599Z,14.83
2023-03-30T00:08:57.959Z,14.85
2023-03-30T00:11:33.907Z,14.87
2023-03-30T00:14:06.631Z,14.78
2023-03-30T00:16:39.508Z,14.77
2023-03-30T00:19:14.071Z,14.81
2023-03-30T00:21:47.280Z,14.80
2023-03-30T00:24:21.772Z,14.70
2023-03-30T00:26:54.685Z,14.70
2023-03-30T00:29:27.649Z,14.70
2023-03-30T00:32:01.117Z,14.69
2023-03-30T00:34:35.507Z,14.67
2023-03-30T00:37:08.382Z,14.62
2023-03-30T00:39:41.617Z,14.63
2023-03-30T00:42:15.380Z,14.59
2023-03-30T00:45:22.414Z,14.52
2023-03-30T00:48:01.351Z,14.58
2023-03-30T00:50:40.610Z,14.63
2023-03-30T00:53:17.349Z,14.73
2023-03-30T00:55:52.879Z,14.68
2023-03-30T00:58:28.444Z,14.57
2023-03-30T01:01:03.965Z,14.66
2023-03-30T01:03:43.754Z,14.56
2023-03-30T01:06:22.010Z,14.60
2023-03-30T01:08:55.686Z,14.67
2023-03-30T01:11:30.088Z,14.70
2023-03-30T01:14:07.253Z,14.58
2023-03-30T01:16:50.255Z,14.61
2023-03-30T01:19:51.286Z,14.59
2023-03-30T01:22:52.698Z,14.68
2023-03-30T01:25:52.760Z,14.67
2023-03-30T01:28:33.958Z,14.67
2023-03-30T01:31:27.570Z,14.62
2023-03-30T01:34:20.287Z,14.69
2023-03-30T01:37:18.912Z,14.62
2023-03-30T01:39:57.942Z,14.68
2023-03-30T01:42:38.386Z,14.57
2023-03-30T01:45:16.872Z,14.63
2023-03-30T01:47:54.160Z,14.57
2023-03-30T01:50:31.599Z,14.60
2023-03-30T01:53:11.950Z,14.60
2023-03-30T01:55:50.809Z,14.63
2023-03-30T01:58:31.860Z,14.57
2023-03-30T02:01:07.887Z,14.57
2023-03-30T02:03:43.974Z,14.55
2023-03-30T02:06:21.353Z,14.58
2023-03-30T02:08:59.745Z,14.55
2023-03-30T02:11:36.067Z,14.45
2023-03-30T02:14:11.540Z,14.46
2023-03-30T02:16:47.441Z,14.61
2023-03-30T02:19:20.852Z,14.64
2023-03-30T02:21:54.010Z,14.62
2023-03-30T02:24:31.533Z,14.58
2023-03-30T02:27:06.648Z,14.59
2023-03-30T02:29:43.096Z,14.55
2023-03-30T02:32:19.913Z,14.57
2023-03-30T02:35:08.920Z,14.58
2023-03-30T02:38:03.370Z,14.68
2023-03-30T02:40:46.581Z,14.62
2023-03-30T02:43:29.384Z,14.63
2023-03-30T02:46:21.638Z,14.59
2023-03-30T02:49:09.010Z,14.72
2023-03-30T02:51:48.945Z,14.47
2023-03-30T02:54:44.330Z,14.51
2023-03-30T02:57:36.283Z,14.60
2023-03-30T03:00:33.726Z,14.61
2023-03-30T03:03:15.377Z,14.60
2023-03-30T03:05:49.109Z,14.68
2023-03-30T03:08:24.673Z,14.63
2023-03-30T03:10:59.918Z,14.67
2023-03-30T03:13:36.702Z,14.61
2023-03-30T03:16:12.394Z,14.56
2023-03-30T03:18:51.337Z,14.53
2023-03-30T03:21:24.077Z,14.54
2023-03-30T03:23:56.866Z,14.53
2023-03-30T03:26:36.657Z,14.54
2023-03-30T03:29:09.514Z,14.55
2023-03-30T03:31:43.798Z,14.67
2023-03-30T03:34:18.065Z,14.62
2023-03-30T03:37:03.923Z,14.43
2023-03-30T03:39:38.924Z,14.55
2023-03-30T03:42:17.040Z,14.69
2023-03-30T03:45:10.329Z,14.63
2023-03-30T03:47:55.316Z,14.51
2023-03-30T03:50:44.654Z,14.53
2023-03-30T03:53:17.683Z,14.55
2023-03-30T03:55:50.435Z,14.63
2023-03-30T03:58:23.247Z,14.54
2023-03-30T04:01:01.406Z,14.52
2023-03-30T04:03:35.559Z,14.48
2023-03-30T04:06:08.694Z,14.53
2023-03-30T04:08:41.570Z,14.52
2023-03-30T04:11:29.128Z,14.52
2023-03-30T04:14:27.432Z,14.55
2023-03-30T04:17:18.882Z,14.46
2023-03-30T04:20:11.593Z,14.50
2023-03-30T04:23:21.803Z,14.46
2023-03-30T04:26:15.477Z,14.38
2023-03-30T04:29:11.050Z,14.43
2023-03-30T04:32:02.710Z,14.23
2023-03-30T04:34:54.818Z,14.40
2023-03-30T04:37:31.117Z,14.27
2023-03-30T04:40:11.004Z,14.24
2023-03-30T04:43:21.493Z,14.33
2023-03-30T04:46:29.430Z,14.28
2023-03-30T04:49:22.812Z,14.18
2023-03-30T04:52:14.183Z,14.27
2023-03-30T04:55:23.994Z,14.14
2023-03-30T04:58:16.661Z,14.11
2023-03-30T05:01:07.441Z,14.01
2023-03-30T05:03:57.614Z,13.91
2023-03-30T05:06:45.836Z,14.07
2023-03-30T05:09:39.613Z,14.03
2023-03-30T05:12:32.303Z,13.95
2023-03-30T05:15:25.363Z,13.88
2023-03-30T05:18:18.365Z,13.81
2023-03-30T05:21:11.757Z,13.80
2023-03-30T05:24:20.061Z,13.76
2023-03-30T05:27:14.398Z,13.77
2023-03-30T05:30:20.657Z,13.86
2023-03-30T05:33:25.760Z,13.73
2023-03-30T05:36:24.271Z,13.85
2023-03-30T05:39:35.097Z,13.75
2023-03-30T05:42:08.177Z,13.74
2023-03-30T05:45:16.578Z,13.66
2023-03-30T05:48:15.002Z,13.64
2023-03-30T05:51:04.363Z,13.62
2023-03-30T05:54:03.545Z,13.76
2023-03-30T05:57:04.205Z,13.78
2023-03-30T05:59:45.954Z,13.70
2023-03-30T06:02:32.697Z,13.71
2023-03-30T06:05:12.309Z,13.73
2023-03-30T06:07:48.241Z,13.85
2023-03-30T06:10:21.467Z,13.82
2023-03-30T06:12:54.269Z,13.83
2023-03-30T06:15:40.595Z,13.82
2023-03-30T06:18:16.749Z,13.86
2023-03-30T06:21:02.335Z,13.83
2023-03-30T06:23:37.308Z,13.77
2023-03-30T06:26:15.734Z,13.87
2023-03-30T06:28:48.755Z,13.79
2023-03-30T06:31:21.748Z,13.80
2023-03-30T06:34:01.729Z,13.84
2023-03-30T06:36:44.950Z,13.81
2023-03-30T06:39:19.831Z,13.77
2023-03-30T06:41:52.627Z,13.88
2023-03-30T06:44:39.804Z,13.83
2023-03-30T06:47:17.606Z,13.92
2023-03-30T06:49:50.342Z,13.90
2023-03-30T06:53:00.952Z,13.74
2023-03-30T06:55:39.566Z,13.78
2023-03-30T06:58:12.418Z,13.71
2023-03-30T07:00:48.307Z,13.77
2023-03-30T07:03:41.234Z,13.77
2023-03-30T07:06:24.484Z,13.94
2023-03-30T07:09:00.263Z,13.97
2023-03-30T07:11:33.557Z,13.92
2023-03-30T07:14:10.050Z,13.95
2023-03-30T07:16:42.955Z,14.00
2023-03-30T07:19:16.306Z,14.13
2023-03-30T07:21:49.032Z,13.92
2023-03-30T07:24:27.710Z,14.07
2023-03-30T07:27:00.640Z,14.08
2023-03-30T07:29:33.353Z,14.03
2023-03-30T07:32:06.664Z,14.04
2023-03-30T07:34:39.775Z,14.07
2023-03-30T07:37:12.587Z,14.06
2023-03-30T07:39:46.757Z,13.93
2023-03-30T07:42:19.869Z,14.09
2023-03-30T07:44:53.107Z,14.09
2023-03-30T07:47:26.863Z,14.17
2023-03-30T07:49:59.878Z,14.13
2023-03-30T07:52:32.876Z,14.24
2023-03-30T07:55:15.757Z,14.22
2023-03-30T07:57:58.229Z,14.32
2023-03-30T08:00:31.033Z,14.25
2023-03-30T08:03:23.109Z,14.40
2023-03-30T08:05:57.368Z,14.46
2023-03-30T08:08:32.446Z,14.37
2023-03-30T08:11:09.052Z,14.58
2023-03-30T08:13:42.099Z,14.75
2023-03-30T08:16:15.133Z,14.79
2023-03-30T08:18:48.199Z,14.80
2023-03-30T08:21:21.209Z,14.98
2023-03-30T08:23:53.769Z,15.05
2023-03-30T08:26:28.249Z,15.17
2023-03-30T08:29:02.338Z,15.29
2023-03-30T08:31:37.484Z,15.36
2023-03-30T08:34:11.602Z,15.47
2023-03-30T08:36:44.360Z,15.57
2023-03-30T08:39:17.145Z,15.61
2023-03-30T08:42:13.832Z,15.60
2023-03-30T08:44:56.766Z,15.78
2023-03-30T08:47:34.369Z,15.85
2023-03-30T08:50:09.521Z,15.94
2023-03-30T08:52:42.916Z,16.02
2023-03-30T08:55:24.787Z,16.03
2023-03-30T08:58:03.291Z,15.95
2023-03-30T09:00:42.692Z,16.10
2023-03-30T09:03:19.971Z,16.22
2023-03-30T09:05:56.401Z,16.30
2023-03-30T09:08:31.124Z,16.43
2023-03-30T09:11:08.196Z,16.42
2023-03-30T09:13:46.440Z,16.49
2023-03-30T09:16:23.723Z,16.49
2023-03-30T09:19:02.408Z,16.48
2023-03-30T09:21:35.151Z,16.51
2023-03-30T09:24:16.063Z,16.56
2023-03-30T09:26:56.312Z,16.63
2023-03-30T09:29:34.224Z,16.71
2023-03-30T09:32:15.300Z,16.69
2023-03-30T09:34:55.307Z,16.83
2023-03-30T09:37:35.346Z,16.84
2023-03-30T09:40:21.463Z,16.89
2023-03-30T09:43:02.669Z,17.09
2023-03-30T09:45:37.757Z,17.06
2023-03-30T09:48:11.031Z,17.13
2023-03-30T09:50:46.693Z,17.27
2023-03-30T09:53:24.901Z,17.33
2023-03-30T09:56:04.327Z,17.46
2023-03-30T09:58:38.490Z,17.59
2023-03-30T10:01:18.395Z,17.65
2023-03-30T10:04:16.439Z,17.81
2023-03-30T10:06:51.423Z,17.81
2023-03-30T10:09:25.068Z,17.86
2023-03-30T10:11:58.555Z,17.99
2023-03-30T10:14:34.861Z,17.97
2023-03-30T10:17:19.359Z,18.07
2023-03-30T10:20:03.636Z,18.19
2023-03-30T10:22:51.612Z,18.31
2023-03-30T10:25:28.242Z,18.30
2023-03-30T10:28:04.203Z,18.25
2023-03-30T10:30:37.390Z,18.30
2023-03-30T10:33:12.622Z,18.41
2023-03-30T10:35:49.999Z,18.43
2023-03-30T10:38:24.341Z,18.50
2023-03-30T10:41:03.573Z,18.58
2023-03-30T10:43:38.225Z,18.54
2023-03-30T10:46:20.035Z,18.60
2023-03-30T10:49:13.746Z,18.56
2023-03-30T10:51:59.243Z,18.56
2023-03-30T10:54:39.248Z,18.49
2023-03-30T10:57:15.036Z,18.50
2023-03-30T11:00:02.391Z,18.52
2023-03-30T11:02:45.506Z,18.43
2023-03-30T11:05:21.638Z,18.39
2023-03-30T11:07:58.356Z,18.44
2023-03-30T11:10:33.861Z,18.52
2023-03-30T11:13:08.751Z,18.52
2023-03-30T11:15:47.298Z,18.46
2023-03-30T11:18:25.068Z,18.47
2023-03-30T11:21:02.625Z,18.40
2023-03-30T11:23:43.417Z,18.46
2023-03-30T11:26:21.525Z,18.44
2023-03-30T11:29:04.041Z,18.37
2023-03-30T11:31:48.006Z,18.15
2023-03-30T11:34:29.009Z,18.09
2023-03-30T11:37:12.125Z,17.90
2023-03-30T11:39:52.061Z,17.98
2023-03-30T11:42:29.530Z,18.00
2023-03-30T11:45:04.877Z,17.99
2023-03-30T11:47:50.373Z,17.94
2023-03-30T11:50:38.006Z,17.85
2023-03-30T11:53:25.174Z,17.82
2023-03-30T11:56:08.408Z,17.82
2023-03-30T11:58:47.000Z,17.76
2023-03-30T12:01:31.353Z,17.71
2023-03-30T12:04:09.003Z,17.57
2023-03-30T12:06:56.943Z,17.47
2023-03-30T12:09:39.591Z,17.48
2023-03-30T12:12:15.866Z,17.43
2023-03-30T12:15:07.147Z,17.37
2023-03-30T12:17:49.949Z,17.35
2023-03-30T12:20:33.081Z,17.33
2023-03-30T12:23:23.853Z,17.28
2023-03-30T12:26:20.657Z,17.27
2023-03-30T12:29:40.518Z,17.15
2023-03-30T12:32:07.106Z,17.28
2023-03-30T12:34:45.039Z,17.29
2023-03-30T12:37:22.828Z,17.24
2023-03-30T12:40:06.208Z,17.25
2023-03-30T12:42:46.926Z,17.25
2023-03-30T12:45:30.286Z,17.30
2023-03-30T12:48:29.747Z,17.33
2023-03-30T12:51:13.414Z,17.17
2023-03-30T12:54:09.282Z,16.98
2023-03-30T12:56:55.677Z,17.15
2023-03-30T12:59:53.300Z,17.18
2023-03-30T13:02:55.239Z,17.37
2023-03-30T13:05:32.476Z,17.28
2023-03-30T13:08:08.834Z,17.36
2023-03-30T13:10:44.243Z,17.40
2023-03-30T13:13:44.442Z,17.49
2023-03-30T13:16:51.230Z,17.52
2023-03-30T13:19:41.129Z,17.58
2023-03-30T13:22:28.018Z,17.49
2023-03-30T13:25:03.697Z,17.77
2023-03-30T13:27:38.283Z,17.88
2023-03-30T13:30:15.092Z,17.94
2023-03-30T13:32:59.372Z,17.93
2023-03-30T13:35:42.932Z,17.99
2023-03-30T13:38:33.190Z,18.08
2023-03-30T13:41:19.978Z,17.99
2023-03-30T13:44:14.953Z,18.10
2023-03-30T13:46:53.527Z,18.16
2023-03-30T13:49:37.776Z,18.30
2023-03-30T13:52:16.952Z,18.29
2023-03-30T13:54:49.898Z,18.38
2023-03-30T13:57:23.850Z,18.36
2023-03-30T14:00:03.448Z,18.39
2023-03-30T14:02:41.202Z,18.45
2023-03-30T14:05:17.799Z,18.48
2023-03-30T14:07:55.187Z,18.59
2023-03-30T14:10:28.418Z,18.55
2023-03-30T14:13:01.393Z,18.46
2023-03-30T14:15:38.730Z,18.69
2023-03-30T14:18:21.143Z,18.79
2023-03-30T14:20:57.287Z,18.66
2023-03-30T14:23:37.428Z,18.56
2023-03-30T14:26:16.102Z,18.48
2023-03-30T14:28:50.828Z,18.59
2023-03-30T14:31:23.775Z,18.69
2023-03-30T14:33:58.896Z,18.77
2023-03-30T14:36:31.687Z,18.73
2023-03-30T14:39:10.433Z,18.58
2023-03-30T14:41:44.199Z,18.74
2023-03-30T14:44:19.646Z,18.73
2023-03-30T14:46:56.570Z,18.72
2023-03-30T14:49:31.857Z,18.84
2023-03-30T14:52:09.475Z,18.87
2023-03-30T14:54:54.454Z,18.85
2023-03-30T14:57:40.402Z,18.81
2023-03-30T15:00:20.438Z,18.77
2023-03-30T15:02:56.756Z,18.72
2023-03-30T15:05:31.219Z,18.76
2023-03-30T15:08:04.967Z,18.67
2023-03-30T15:10:49.792Z,18.58
2023-03-30T15:13:29.039Z,18.70
2023-03-30T15:16:06.533Z,18.58
2023-03-30T15:18:39.329Z,18.52
2023-03-30T15:21:14.058Z,18.54
2023-03-30T15:23:48.829Z,18.45
2023-03-30T15:26:23.129Z,18.27
2023-03-30T15:28:59.569Z,18.29
2023-03-30T15:31:34.377Z,18.37
2023-03-30T15:34:14.949Z,18.38
2023-03-30T15:36:54.465Z,18.21
2023-03-30T15:39:33.889Z,18.10
2023-03-30T15:42:08.715Z,18.12
2023-03-30T15:44:43.214Z,18.14
2023-03-30T15:47:20.959Z,18.15
2023-03-30T15:49:53.717Z,18.17
2023-03-30T15:52:34.212Z,18.00
2023-03-30T15:55:15.561Z,17.85
2023-03-30T15:57:52.668Z,17.59
2023-03-30T16:00:28.912Z,17.71
2023-03-30T16:03:04.001Z,17.68
2023-03-30T16:05:37.089Z,17.71
2023-03-30T16:08:09.811Z,17.59
2023-03-30T16:10:42.504Z,17.50
2023-03-30T16:13:16.856Z,17.44
2023-03-30T16:15:49.736Z,17.42
2023-03-30T16:18:22.489Z,17.30
2023-03-30T16:20:55.239Z,17.13
2023-03-30T16:23:27.915Z,17.17
2023-03-30T16:26:00.760Z,17.05
2023-03-30T16:28:34.787Z,16.97
2023-03-30T16:31:15.293Z,16.88
2023-03-30T16:33:47.990Z,16.96
2023-03-30T16:36:25.070Z,16.85
2023-03-30T16:38:57.709Z,16.80
2023-03-30T16:41:30.787Z,16.74
2023-03-30T16:44:05.013Z,16.91
2023-03-30T16:46:37.804Z,16.65
2023-03-30T16:49:14.728Z,16.67
2023-03-30T16:51:47.610Z,16.70
2023-03-30T16:54:30.547Z,16.58
2023-03-30T16:57:05.765Z,16.38
2023-03-30T16:59:42.241Z,16.36
2023-03-30T17:02:17.582Z,16.40
2023-03-30T17:04:52.609Z,16.17
2023-03-30T17:07:26.568Z,16.39
2023-03-30T17:10:00.719Z,16.40
2023-03-30T17:12:33.604Z,16.31
2023-03-30T17:15:09.528Z,16.23
2023-03-30T17:17:42.299Z,16.24
2023-03-30T17:20:26.192Z,16.16
2023-03-30T17:22:59.990Z,16.23
2023-03-30T17:25:35.400Z,16.20
2023-03-30T17:28:09.857Z,16.21
2023-03-30T17:30:44.351Z,16.00
2023-03-30T17:33:20.217Z,15.98
2023-03-30T17:35:56.601Z,16.16
2023-03-30T17:38:30.042Z,15.98
2023-03-30T17:41:03.003Z,15.84
2023-03-30T17:43:36.391Z,15.66
2023-03-30T17:46:14.224Z,16.07
2023-03-30T17:48:47.487Z,15.97
2023-03-30T17:51:20.708Z,15.60
2023-03-30T17:53:53.639Z,15.78
2023-03-30T17:56:28.595Z,15.92
2023-03-30T17:59:05.444Z,15.85
2023-03-30T18:01:41.127Z,15.75
2023-03-30T18:04:14.862Z,15.78
2023-03-30T18:06:49.247Z,15.74
2023-03-30T18:09:25.914Z,15.72
2023-03-30T18:12:00.426Z,15.75
2023-03-30T18:14:34.471Z,15.60
2023-03-30T18:17:11.598Z,15.67
2023-03-30T18:19:48.025Z,15.68
2023-03-30T18:22:20.977Z,15.40
2023-03-30T18:24:53.607Z,15.55
2023-03-30T18:27:34.462Z,15.57
2023-03-30T18:30:19.052Z,15.47
2023-03-30T18:32:54.483Z,15.55
2023-03-30T18:35:29.081Z,15.54
2023-03-30T18:38:02.986Z,15.49
2023-03-30T18:40:38.269Z,15.47
2023-03-30T18:43:14.168Z,15.45
2023-03-30T18:45:49.796Z,15.34
2023-03-30T18:48:24.339Z,15.38
2023-03-30T18:50:58.039Z,15.31
2023-03-30T18:53:31.079Z,15.35
2023-03-30T18:56:04.150Z,15.21
2023-03-30T18:58:43.021Z,15.20
2023-03-30T19:01:16.945Z,15.27
2023-03-30T19:03:51.965Z,14.92
2023-03-30T19:06:24.990Z,14.97
2023-03-30T19:09:00.752Z,15.05
2023-03-30T19:11:33.911Z,15.04
2023-03-30T19:14:17.000Z,14.83
2023-03-30T19:16:58.803Z,14.86
2023-03-30T19:19:41.373Z,14.91
2023-03-30T19:22:14.604Z,14.82
2023-03-30T19:24:56.743Z,14.93
2023-03-30T19:27:32.233Z,14.87
2023-03-30T19:30:12.373Z,14.76
2023-03-30T19:32:46.318Z,14.90
2023-03-30T19:35:20.749Z,14.86
2023-03-30T19:37:54.107Z,14.74
2023-03-30T19:40:28.503Z,14.65
2023-03-30T19:43:03.724Z,14.55
2023-03-30T19:45:36.725Z,14.72
2023-03-30T19:48:16.922Z,14.75
2023-03-30T19:50:59.329Z,14.58
2023-03-30T19:53:32.340Z,14.69
2023-03-30T19:56:10.419Z,14.52
2023-03-30T19:58:43.256Z,14.70
2023-03-30T20:01:16.735Z,14.72
2023-03-30T20:03:49.894Z,14.63
2023-03-30T20:06:23.899Z,14.68
2023-03-30T20:09:00.349Z,14.58
2023-03-30T20:11:33.034Z,14.68
2023-03-30T20:14:06.238Z,14.62
2023-03-30T20:16:45.476Z,14.58
2023-03-30T20:19:29.095Z,14.36
2023-03-30T20:22:06.849Z,14.34
2023-03-30T20:24:40.558Z,14.50
2023-03-30T20:27:13.368Z,14.40
2023-03-30T20:29:46.348Z,14.46
2023-03-30T20:32:18.920Z,14.36
2023-03-30T20:34:53.060Z,14.37
2023-03-30T20:37:27.309Z,14.43
2023-03-30T20:40:04.025Z,14.34
2023-03-30T20:42:39.888Z,14.36
2023-03-30T20:45:13.768Z,14.37
2023-03-30T20:47:50.054Z,14.35
2023-03-30T20:50:23.080Z,14.21
2023-03-30T20:52:58.833Z,14.28
2023-03-30T20:55:31.505Z,14.32
2023-03-30T20:58:04.397Z,14.24
2023-03-30T21:00:36.955Z,14.30
2023-03-30T21:03:14.900Z,14.25
2023-03-30T21:05:48.141Z,14.28
2023-03-30T21:08:22.249Z,14.24
2023-03-30T21:10:55.519Z,14.24
2023-03-30T21:13:28.747Z,14.03
2023-03-30T21:16:03.558Z,14.10
2023-03-30T21:18:36.840Z,14.24
2023-03-30T21:21:10.250Z,14.15
2023-03-30T21:23:44.923Z,14.10
2023-03-30T21:26:18.510Z,14.10
2023-03-30T21:28:51.658Z,13.98
2023-03-30T21:31:24.860Z,13.86
2023-03-30T21:33:57.695Z,14.07
2023-03-30T21:36:30.518Z,13.97
2023-03-30T21:39:04.665Z,14.05
2023-03-30T21:41:37.823Z,13.95
2023-03-30T21:44:10.529Z,13.95
2023-03-30T21:46:43.366Z,13.91
2023-03-30T21:49:16.168Z,13.89
2023-03-30T21:51:48.836Z,13.92
2023-03-30T21:54:23.662Z,13.87
2023-03-30T21:56:56.524Z,13.67
2023-03-30T21:59:29.425Z,13.87
2023-03-30T22:02:02.254Z,13.93
2023-03-30T22:04:35.437Z,13.93
2023-03-30T22:07:08.609Z,13.94
2023-03-30T22:09:43.190Z,13.89
2023-03-30T22:12:17.712Z,13.89
2023-03-30T22:14:51.049Z,13.86
2023-03-30T22:17:34.666Z,13.84
2023-03-30T22:20:10.387Z,13.70
2023-03-30T22:22:44.173Z,13.82
2023-03-30T22:25:18.973Z,13.77
2023-03-30T22:27:54.153Z,13.78
2023-03-30T22:30:27.129Z,13.58
2023-03-30T22:33:00.181Z,13.68
2023-03-30T22:35:37.363Z,13.71
2023-03-30T22:38:11.242Z,13.64
2023-03-30T22:40:45.192Z,13.66
2023-03-30T22:43:17.942Z,13.55
2023-03-30T22:45:50.712Z,13.68
2023-03-30T22:48:23.483Z,13.52
2023-03-30T22:50:58.024Z,13.59
2023-03-30T22:53:31.290Z,13.57
2023-03-30T22:56:12.031Z,13.45
2023-03-30T22:58:44.768Z,13.46
2023-03-30T23:01:17.526Z,13.42
2023-03-30T23:03:50.369Z,13.38
2023-03-30T23:06:23.310Z,13.38
2023-03-30T23:08:56.119Z,13.46
2023-03-30T23:11:30.298Z,13.39
2023-03-30T23:14:05.157Z,13.41
2023-03-30T23:16:38.023Z,13.34
2023-03-30T23:19:11.384Z,13.45
2023-03-30T23:21:44.638Z,13.38
2023-03-30T23:24:17.291Z,13.43
2023-03-30T23:26:51.533Z,13.37
2023-03-30T23:29:24.232Z,13.42
2023-03-30T23:31:56.920Z,13.38
2023-03-30T23:34:29.832Z,13.41
2023-03-30T23:37:02.921Z,13.42
2023-03-30T23:39:35.713Z,13.40
2023-03-30T23:42:09.863Z,13.41
2023-03-30T23:44:42.591Z,13.42
2023-03-30T23:47:16.292Z,13.38
2023-03-30T23:49:49.006Z,13.38
2023-03-30T23:52:21.730Z,13.39
2023-03-30T23:54:54.620Z,13.41
2023-03-30T23:57:29.130Z,13.50
